sensor_id;sensor_type;location;lat;lon;timestamp;P1;durP1;ratioP1;P2;durP2;ratioP2
58874;SDS011;44652;49.040;12.126;2023-04-06T05:14:11;11.00;;;6.95;;
58874;SDS011;44652;49.040;12.126;2023-04-06T05:16:38;10.55;;;6.15;;
58874;SDS011;44652;49.040;12.126;2023-04-06T05:35:11;11.85;;;7.07;;
58874;SDS011;44652;49.040;12.126;2023-04-06T05:37:41;11.07;;;8.07;;
58874;SDS011;44652;49.040;12.126;2023-04-06T05:40:09;15.75;;;8.32;;
58874;SDS011;44652;49.040;12.126;2023-04-06T05:42:38;14.93;;;9.63;;
58874;SDS011;44652;49.040;12.126;2023-04-06T05:45:09;16.20;;;9.70;;
58874;SDS011;44652;49.040;12.126;2023-04-06T05:47:38;14.73;;;8.45;;
58874;SDS011;44652;49.040;12.126;2023-04-06T05:50:17;13.95;;;8.73;;
58874;SDS011;44652;49.040;12.126;2023-04-06T05:52:43;17.05;;;9.15;;
58874;SDS011;44652;49.040;12.126;2023-04-06T05:55:15;14.85;;;8.18;;
58874;SDS011;44652;49.040;12.126;2023-04-06T05:57:47;15.88;;;9.23;;
58874;SDS011;44652;49.040;12.126;2023-04-06T06:00:16;17.27;;;9.02;;
58874;SDS011;44652;49.040;12.126;2023-04-06T06:02:52;14.70;;;8.77;;
58874;SDS011;44652;49.040;12.126;2023-04-06T06:05:23;15.05;;;8.48;;
58874;SDS011;44652;49.040;12.126;2023-04-06T06:07:50;17.83;;;8.77;;
58874;SDS011;44652;49.040;12.126;2023-04-06T06:10:16;17.08;;;7.90;;
58874;SDS011;44652;49.040;12.126;2023-04-06T06:12:43;14.40;;;8.38;;
58874;SDS011;44652;49.040;12.126;2023-04-06T06:15:11;16.70;;;9.88;;
58874;SDS011;44652;49.040;12.126;2023-04-06T06:17:43;14.45;;;9.40;;
58874;SDS011;44652;49.040;12.126;2023-04-06T06:20:10;12.63;;;7.63;;
58874;SDS011;44652;49.040;12.126;2023-04-06T06:22:37;19.27;;;7.57;;
58874;SDS011;44652;49.040;12.126;2023-04-06T06:25:10;14.73;;;8.20;;
58874;SDS011;44652;49.040;12.126;2023-04-06T06:27:36;14.48;;;8.27;;
58874;SDS011;44652;49.040;12.126;2023-04-06T06:30:04;15.07;;;8.77;;
58874;SDS011;44652;49.040;12.126;2023-04-06T06:32:32;16.35;;;8.50;;
58874;SDS011;44652;49.040;12.126;2023-04-06T06:34:59;15.80;;;8.45;;
58874;SDS011;44652;49.040;12.126;2023-04-06T06:37:27;10.63;;;7.20;;
58874;SDS011;44652;49.040;12.126;2023-04-06T06:39:56;13.60;;;8.32;;
58874;SDS011;44652;49.040;12.126;2023-04-06T06:42:23;18.38;;;8.20;;
58874;SDS011;44652;49.040;12.126;2023-04-06T06:45:06;11.55;;;7.38;;
58874;SDS011;44652;49.040;12.126;2023-04-06T06:47:33;12.25;;;6.63;;
58874;SDS011;44652;49.040;12.126;2023-04-06T06:50:00;11.88;;;7.47;;
58874;SDS011;44652;49.040;12.126;2023-04-06T06:52:28;15.82;;;7.00;;
58874;SDS011;44652;49.040;12.126;2023-04-06T06:54:55;12.68;;;6.47;;
58874;SDS011;44652;49.040;12.126;2023-04-06T06:57:23;10.50;;;7.28;;
58874;SDS011;44652;49.040;12.126;2023-04-06T06:59:50;10.90;;;7.35;;
58874;SDS011;44652;49.040;12.126;2023-04-06T07:02:18;13.52;;;7.40;;
58874;SDS011;44652;49.040;12.126;2023-04-06T07:04:47;12.88;;;7.00;;
58874;SDS011;44652;49.040;12.126;2023-04-06T07:07:16;13.35;;;6.90;;
58874;SDS011;44652;49.040;12.126;2023-04-06T07:09:42;14.77;;;6.60;;
58874;SDS011;44652;49.040;12.126;2023-04-06T07:12:09;13.60;;;6.90;;
58874;SDS011;44652;49.040;12.126;2023-04-06T07:14:36;12.48;;;6.72;;
58874;SDS011;44652;49.040;12.126;2023-04-06T07:17:03;14.15;;;6.72;;
58874;SDS011;44652;49.040;12.126;2023-04-06T07:19:30;12.02;;;6.38;;
58874;SDS011;44652;49.040;12.126;2023-04-06T07:21:57;12.20;;;6.70;;
58874;SDS011;44652;49.040;12.126;2023-04-06T07:24:24;12.13;;;6.72;;
58874;SDS011;44652;49.040;12.126;2023-04-06T07:26:52;14.30;;;7.13;;
58874;SDS011;44652;49.040;12.126;2023-04-06T07:29:19;14.25;;;7.35;;
58874;SDS011;44652;49.040;12.126;2023-04-06T07:31:46;15.07;;;7.40;;
58874;SDS011;44652;49.040;12.126;2023-04-06T07:34:14;13.52;;;8.05;;
58874;SDS011;44652;49.040;12.126;2023-04-06T07:36:41;15.93;;;7.50;;
58874;SDS011;44652;49.040;12.126;2023-04-06T07:39:08;16.30;;;7.35;;
58874;SDS011;44652;49.040;12.126;2023-04-06T07:41:35;10.98;;;5.97;;
58874;SDS011;44652;49.040;12.126;2023-04-06T07:44:02;11.32;;;6.63;;
58874;SDS011;44652;49.040;12.126;2023-04-06T07:46:30;13.25;;;6.22;;
58874;SDS011;44652;49.040;12.126;2023-04-06T07:48:57;10.25;;;6.40;;
58874;SDS011;44652;49.040;12.126;2023-04-06T07:51:28;12.18;;;6.43;;
58874;SDS011;44652;49.040;12.126;2023-04-06T07:53:55;12.55;;;6.47;;
58874;SDS011;44652;49.040;12.126;2023-04-06T07:56:22;11.43;;;6.85;;
58874;SDS011;44652;49.040;12.126;2023-04-06T07:58:49;13.50;;;6.63;;
58874;SDS011;44652;49.040;12.126;2023-04-06T08:01:19;10.75;;;6.43;;
58874;SDS011;44652;49.040;12.126;2023-04-06T08:03:46;14.70;;;6.47;;
58874;SDS011;44652;49.040;12.126;2023-04-06T08:06:13;9.98;;;5.78;;
58874;SDS011;44652;49.040;12.126;2023-04-06T08:08:40;12.68;;;5.82;;
58874;SDS011;44652;49.040;12.126;2023-04-06T08:11:08;11.57;;;6.00;;
58874;SDS011;44652;49.040;12.126;2023-04-06T08:13:35;11.35;;;7.60;;
58874;SDS011;44652;49.040;12.126;2023-04-06T08:16:02;15.38;;;5.90;;
58874;SDS011;44652;49.040;12.126;2023-04-06T08:18:29;11.57;;;6.00;;
58874;SDS011;44652;49.040;12.126;2023-04-06T08:20:56;10.93;;;5.68;;
58874;SDS011;44652;49.040;12.126;2023-04-06T08:23:23;9.70;;;6.00;;
58874;SDS011;44652;49.040;12.126;2023-04-06T08:25:50;10.32;;;6.15;;
58874;SDS011;44652;49.040;12.126;2023-04-06T08:28:19;12.75;;;5.80;;
58874;SDS011;44652;49.040;12.126;2023-04-06T08:30:45;8.82;;;6.00;;
58874;SDS011;44652;49.040;12.126;2023-04-06T08:33:12;13.05;;;6.00;;
58874;SDS011;44652;49.040;12.126;2023-04-06T08:35:39;11.50;;;6.57;;
58874;SDS011;44652;49.040;12.126;2023-04-06T08:38:06;8.95;;;5.90;;
58874;SDS011;44652;49.040;12.126;2023-04-06T08:40:37;8.07;;;5.63;;
58874;SDS011;44652;49.040;12.126;2023-04-06T08:43:06;11.80;;;6.00;;
58874;SDS011;44652;49.040;12.126;2023-04-06T08:45:35;11.15;;;6.15;;
58874;SDS011;44652;49.040;12.126;2023-04-06T08:48:02;14.70;;;5.95;;
58874;SDS011;44652;49.040;12.126;2023-04-06T08:50:29;13.73;;;5.90;;
58874;SDS011;44652;49.040;12.126;2023-04-06T08:52:56;12.48;;;6.40;;
58874;SDS011;44652;49.040;12.126;2023-04-06T08:55:23;9.68;;;6.30;;
58874;SDS011;44652;49.040;12.126;2023-04-06T08:57:50;12.90;;;6.55;;
58874;SDS011;44652;49.040;12.126;2023-04-06T09:00:21;11.98;;;6.43;;
58874;SDS011;44652;49.040;12.126;2023-04-06T09:02:49;10.80;;;6.20;;
58874;SDS011;44652;49.040;12.126;2023-04-06T09:05:16;14.43;;;6.40;;
58874;SDS011;44652;49.040;12.126;2023-04-06T09:07:44;8.68;;;5.85;;
58874;SDS011;44652;49.040;12.126;2023-04-06T09:10:11;12.48;;;6.45;;
58874;SDS011;44652;49.040;12.126;2023-04-06T09:12:41;9.77;;;5.97;;
58874;SDS011;44652;49.040;12.126;2023-04-06T09:15:17;11.68;;;5.43;;
58874;SDS011;44652;49.040;12.126;2023-04-06T09:17:49;11.32;;;6.35;;
58874;SDS011;44652;49.040;12.126;2023-04-06T09:20:21;11.65;;;5.57;;
58874;SDS011;44652;49.040;12.126;2023-04-06T09:22:49;10.25;;;5.60;;
58874;SDS011;44652;49.040;12.126;2023-04-06T09:25:19;11.55;;;5.63;;
58874;SDS011;44652;49.040;12.126;2023-04-06T09:28:00;10.23;;;5.25;;
58874;SDS011;44652;49.040;12.126;2023-04-06T09:30:33;13.35;;;5.60;;
58874;SDS011;44652;49.040;12.126;2023-04-06T09:33:02;10.63;;;5.43;;
58874;SDS011;44652;49.040;12.126;2023-04-06T09:35:29;9.45;;;5.03;;
58874;SDS011;44652;49.040;12.126;2023-04-06T09:40:24;9.38;;;5.28;;
58874;SDS011;44652;49.040;12.126;2023-04-06T09:42:51;11.93;;;5.32;;
58874;SDS011;44652;49.040;12.126;2023-04-06T09:45:20;9.48;;;6.03;;
58874;SDS011;44652;49.040;12.126;2023-04-06T09:47:47;10.38;;;6.10;;
58874;SDS011;44652;49.040;12.126;2023-04-06T09:50:16;13.23;;;6.20;;
58874;SDS011;44652;49.040;12.126;2023-04-06T09:52:50;9.43;;;5.40;;
58874;SDS011;44652;49.040;12.126;2023-04-06T09:55:23;8.65;;;5.22;;
58874;SDS011;44652;49.040;12.126;2023-04-06T09:58:06;8.50;;;4.97;;
58874;SDS011;44652;49.040;12.126;2023-04-06T10:00:48;9.20;;;5.60;;
58874;SDS011;44652;49.040;12.126;2023-04-06T10:06:03;11.02;;;5.57;;
58874;SDS011;44652;49.040;12.126;2023-04-06T10:08:32;9.68;;;5.05;;
58874;SDS011;44652;49.040;12.126;2023-04-06T10:11:03;10.10;;;4.85;;
58874;SDS011;44652;49.040;12.126;2023-04-06T10:13:29;7.50;;;4.78;;
58874;SDS011;44652;49.040;12.126;2023-04-06T10:15:56;7.72;;;5.15;;
58874;SDS011;44652;49.040;12.126;2023-04-06T10:18:27;9.80;;;4.97;;
58874;SDS011;44652;49.040;12.126;2023-04-06T10:23:37;7.15;;;5.13;;
58874;SDS011;44652;49.040;12.126;2023-04-06T10:26:14;10.55;;;5.93;;
58874;SDS011;44652;49.040;12.126;2023-04-06T10:28:44;10.15;;;5.75;;
58874;SDS011;44652;49.040;12.126;2023-04-06T10:31:12;8.88;;;5.43;;
58874;SDS011;44652;49.040;12.126;2023-04-06T10:33:56;9.70;;;5.30;;
58874;SDS011;44652;49.040;12.126;2023-04-06T10:36:27;10.80;;;5.40;;
58874;SDS011;44652;49.040;12.126;2023-04-06T10:39:04;9.07;;;5.80;;
58874;SDS011;44652;49.040;12.126;2023-04-06T10:41:32;8.77;;;5.68;;
58874;SDS011;44652;49.040;12.126;2023-04-06T10:46:31;10.30;;;5.50;;
58874;SDS011;44652;49.040;12.126;2023-04-06T10:49:11;7.78;;;5.78;;
58874;SDS011;44652;49.040;12.126;2023-04-06T10:51:38;9.18;;;5.45;;
58874;SDS011;44652;49.040;12.126;2023-04-06T10:54:06;8.90;;;6.10;;
58874;SDS011;44652;49.040;12.126;2023-04-06T10:56:35;7.70;;;5.70;;
58874;SDS011;44652;49.040;12.126;2023-04-06T10:59:03;8.55;;;6.03;;
58874;SDS011;44652;49.040;12.126;2023-04-06T11:01:30;9.73;;;6.22;;
58874;SDS011;44652;49.040;12.126;2023-04-06T11:03:57;11.70;;;6.22;;
58874;SDS011;44652;49.040;12.126;2023-04-06T11:06:28;8.88;;;5.93;;
58874;SDS011;44652;49.040;12.126;2023-04-06T11:08:57;11.43;;;6.30;;
58874;SDS011;44652;49.040;12.126;2023-04-06T11:11:25;7.70;;;5.88;;
58874;SDS011;44652;49.040;12.126;2023-04-06T11:13:54;9.23;;;5.70;;
58874;SDS011;44652;49.040;12.126;2023-04-06T11:16:31;8.68;;;5.95;;
58874;SDS011;44652;49.040;12.126;2023-04-06T11:19:03;12.43;;;6.15;;
58874;SDS011;44652;49.040;12.126;2023-04-06T11:21:36;11.00;;;6.47;;
58874;SDS011;44652;49.040;12.126;2023-04-06T11:24:22;9.10;;;5.47;;
58874;SDS011;44652;49.040;12.126;2023-04-06T11:26:56;9.75;;;6.20;;
58874;SDS011;44652;49.040;12.126;2023-04-06T11:29:28;9.98;;;6.15;;
58874;SDS011;44652;49.040;12.126;2023-04-06T11:32:00;9.75;;;6.38;;
58874;SDS011;44652;49.040;12.126;2023-04-06T11:34:29;8.93;;;6.07;;
58874;SDS011;44652;49.040;12.126;2023-04-06T11:36:59;10.48;;;5.97;;
58874;SDS011;44652;49.040;12.126;2023-04-06T11:42:07;11.40;;;6.65;;
58874;SDS011;44652;49.040;12.126;2023-04-06T11:47:08;8.45;;;6.05;;
58874;SDS011;44652;49.040;12.126;2023-04-06T11:52:13;8.90;;;6.10;;
58874;SDS011;44652;49.040;12.126;2023-04-06T11:54:48;11.52;;;6.63;;
58874;SDS011;44652;49.040;12.126;2023-04-06T11:59:44;11.00;;;6.15;;
58874;SDS011;44652;49.040;12.126;2023-04-06T12:02:11;9.90;;;6.30;;
58874;SDS011;44652;49.040;12.126;2023-04-06T12:04:38;8.10;;;5.70;;
58874;SDS011;44652;49.040;12.126;2023-04-06T12:07:05;7.97;;;5.82;;
58874;SDS011;44652;49.040;12.126;2023-04-06T12:09:32;7.25;;;5.55;;
58874;SDS011;44652;49.040;12.126;2023-04-06T12:12:00;9.60;;;6.38;;
58874;SDS011;44652;49.040;12.126;2023-04-06T12:14:27;11.45;;;6.18;;
58874;SDS011;44652;49.040;12.126;2023-04-06T12:16:54;18.88;;;6.22;;
58874;SDS011;44652;49.040;12.126;2023-04-06T12:19:21;13.55;;;5.63;;
58874;SDS011;44652;49.040;12.126;2023-04-06T12:21:52;8.32;;;5.70;;
58874;SDS011;44652;49.040;12.126;2023-04-06T12:24:20;9.35;;;6.03;;
58874;SDS011;44652;49.040;12.126;2023-04-06T12:26:47;11.88;;;6.72;;
58874;SDS011;44652;49.040;12.126;2023-04-06T12:29:19;6.95;;;5.57;;
58874;SDS011;44652;49.040;12.126;2023-04-06T12:31:46;8.18;;;6.00;;
58874;SDS011;44652;49.040;12.126;2023-04-06T12:34:12;11.63;;;6.10;;
58874;SDS011;44652;49.040;12.126;2023-04-06T12:36:39;8.48;;;6.03;;
58874;SDS011;44652;49.040;12.126;2023-04-06T15:21:57;7.05;;;5.10;;
58874;SDS011;44652;49.040;12.126;2023-04-06T15:24:26;6.25;;;3.83;;
58874;SDS011;44652;49.040;12.126;2023-04-06T15:26:52;7.03;;;5.18;;
58874;SDS011;44652;49.040;12.126;2023-04-06T15:29:19;7.95;;;4.75;;
58874;SDS011;44652;49.040;12.126;2023-04-06T15:31:46;6.15;;;4.50;;
58874;SDS011;44652;49.040;12.126;2023-04-06T15:34:13;6.80;;;5.05;;
58874;SDS011;44652;49.040;12.126;2023-04-06T15:36:40;7.95;;;5.20;;
58874;SDS011;44652;49.040;12.126;2023-04-06T15:39:08;7.28;;;4.95;;
58874;SDS011;44652;49.040;12.126;2023-04-06T15:41:35;10.50;;;8.48;;
58874;SDS011;44652;49.040;12.126;2023-04-06T15:44:02;8.60;;;4.57;;
58874;SDS011;44652;49.040;12.126;2023-04-06T15:46:29;6.18;;;4.70;;
58874;SDS011;44652;49.040;12.126;2023-04-06T15:48:56;8.63;;;5.22;;
58874;SDS011;44652;49.040;12.126;2023-04-06T15:51:23;6.78;;;4.53;;
58874;SDS011;44652;49.040;12.126;2023-04-06T15:53:50;7.85;;;5.25;;
58874;SDS011;44652;49.040;12.126;2023-04-06T15:56:16;8.15;;;4.80;;
58874;SDS011;44652;49.040;12.126;2023-04-06T15:58:43;7.50;;;5.30;;
58874;SDS011;44652;49.040;12.126;2023-04-06T16:01:14;6.85;;;4.70;;
58874;SDS011;44652;49.040;12.126;2023-04-06T16:03:41;5.30;;;3.95;;
58874;SDS011;44652;49.040;12.126;2023-04-06T16:06:09;6.30;;;3.90;;
58874;SDS011;44652;49.040;12.126;2023-04-06T16:08:36;7.45;;;4.13;;
58874;SDS011;44652;49.040;12.126;2023-04-06T16:11:04;5.97;;;3.63;;
58874;SDS011;44652;49.040;12.126;2023-04-06T16:13:31;7.68;;;4.20;;
58874;SDS011;44652;49.040;12.126;2023-04-06T16:15:59;6.38;;;4.30;;
58874;SDS011;44652;49.040;12.126;2023-04-06T16:18:26;7.03;;;4.30;;
58874;SDS011;44652;49.040;12.126;2023-04-06T16:20:52;6.32;;;4.30;;
58874;SDS011;44652;49.040;12.126;2023-04-06T16:23:19;7.57;;;4.78;;
58874;SDS011;44652;49.040;12.126;2023-04-06T16:25:46;5.68;;;4.10;;
58874;SDS011;44652;49.040;12.126;2023-04-06T16:28:13;6.00;;;4.22;;
58874;SDS011;44652;49.040;12.126;2023-04-06T16:30:39;7.38;;;4.57;;
58874;SDS011;44652;49.040;12.126;2023-04-06T16:33:11;6.60;;;4.38;;
58874;SDS011;44652;49.040;12.126;2023-04-06T16:35:47;7.00;;;4.35;;
58874;SDS011;44652;49.040;12.126;2023-04-06T16:38:14;6.63;;;4.70;;
58874;SDS011;44652;49.040;12.126;2023-04-06T16:40:41;8.10;;;5.30;;
58874;SDS011;44652;49.040;12.126;2023-04-06T16:43:08;6.90;;;5.00;;
58874;SDS011;44652;49.040;12.126;2023-04-06T16:45:35;9.93;;;5.75;;
58874;SDS011;44652;49.040;12.126;2023-04-06T16:48:03;7.60;;;5.30;;
58874;SDS011;44652;49.040;12.126;2023-04-06T16:50:30;7.03;;;4.85;;
58874;SDS011;44652;49.040;12.126;2023-04-06T16:52:56;7.45;;;5.18;;
58874;SDS011;44652;49.040;12.126;2023-04-06T16:55:23;6.57;;;4.30;;
58874;SDS011;44652;49.040;12.126;2023-04-06T16:57:53;9.40;;;6.35;;
58874;SDS011;44652;49.040;12.126;2023-04-06T17:00:21;10.13;;;7.40;;
58874;SDS011;44652;49.040;12.126;2023-04-06T17:02:47;9.77;;;7.43;;
58874;SDS011;44652;49.040;12.126;2023-04-06T17:05:14;9.55;;;6.38;;
58874;SDS011;44652;49.040;12.126;2023-04-06T17:07:43;9.35;;;6.07;;
58874;SDS011;44652;49.040;12.126;2023-04-06T17:10:09;9.75;;;5.80;;
58874;SDS011;44652;49.040;12.126;2023-04-06T17:12:36;10.95;;;6.28;;
58874;SDS011;44652;49.040;12.126;2023-04-06T17:15:03;9.02;;;6.30;;
58874;SDS011;44652;49.040;12.126;2023-04-06T17:17:30;10.38;;;6.30;;
58874;SDS011;44652;49.040;12.126;2023-04-06T17:19:56;9.50;;;7.13;;
58874;SDS011;44652;49.040;12.126;2023-04-06T17:22:23;12.95;;;7.00;;
58874;SDS011;44652;49.040;12.126;2023-04-06T17:24:50;13.10;;;9.43;;
58874;SDS011;44652;49.040;12.126;2023-04-06T17:27:17;12.32;;;7.80;;
58874;SDS011;44652;49.040;12.126;2023-04-06T17:29:44;10.02;;;6.78;;
58874;SDS011;44652;49.040;12.126;2023-04-06T17:32:10;11.00;;;7.78;;
58874;SDS011;44652;49.040;12.126;2023-04-06T17:34:37;16.75;;;10.00;;
58874;SDS011;44652;49.040;12.126;2023-04-06T17:37:04;16.33;;;9.65;;
58874;SDS011;44652;49.040;12.126;2023-04-06T17:39:31;16.60;;;8.68;;
58874;SDS011;44652;49.040;12.126;2023-04-06T17:41:57;17.00;;;9.18;;
58874;SDS011;44652;49.040;12.126;2023-04-06T17:44:25;18.08;;;9.23;;
58874;SDS011;44652;49.040;12.126;2023-04-06T17:46:52;19.38;;;9.30;;
58874;SDS011;44652;49.040;12.126;2023-04-06T17:49:18;10.93;;;8.13;;
58874;SDS011;44652;49.040;12.126;2023-04-06T17:51:45;11.82;;;9.77;;
58874;SDS011;44652;49.040;12.126;2023-04-06T17:54:12;12.45;;;9.23;;
58874;SDS011;44652;49.040;12.126;2023-04-06T17:56:39;13.20;;;10.40;;
58874;SDS011;44652;49.040;12.126;2023-04-06T17:59:06;13.95;;;9.20;;
58874;SDS011;44652;49.040;12.126;2023-04-06T18:01:37;14.50;;;9.07;;
58874;SDS011;44652;49.040;12.126;2023-04-06T18:04:04;14.10;;;9.88;;
58874;SDS011;44652;49.040;12.126;2023-04-06T18:06:31;15.60;;;10.00;;
58874;SDS011;44652;49.040;12.126;2023-04-06T18:08:58;17.05;;;9.57;;
58874;SDS011;44652;49.040;12.126;2023-04-06T18:11:25;15.75;;;9.90;;
58874;SDS011;44652;49.040;12.126;2023-04-06T18:13:56;18.30;;;9.77;;
58874;SDS011;44652;49.040;12.126;2023-04-06T18:16:23;14.65;;;10.23;;
58874;SDS011;44652;49.040;12.126;2023-04-06T18:18:50;17.23;;;10.73;;
58874;SDS011;44652;49.040;12.126;2023-04-06T18:21:17;15.88;;;10.82;;
58874;SDS011;44652;49.040;12.126;2023-04-06T18:23:44;13.07;;;9.50;;
58874;SDS011;44652;49.040;12.126;2023-04-06T18:26:15;12.27;;;7.20;;
58874;SDS011;44652;49.040;12.126;2023-04-06T18:28:44;11.98;;;8.05;;
58874;SDS011;44652;49.040;12.126;2023-04-06T18:31:11;54.67;;;32.05;;
58874;SDS011;44652;49.040;12.126;2023-04-06T18:33:39;70.70;;;41.72;;
58874;SDS011;44652;49.040;12.126;2023-04-06T18:36:05;38.42;;;22.67;;
58874;SDS011;44652;49.040;12.126;2023-04-06T18:38:32;20.75;;;13.75;;
58874;SDS011;44652;49.040;12.126;2023-04-06T18:40:59;16.27;;;10.93;;
58874;SDS011;44652;49.040;12.126;2023-04-06T18:43:26;15.45;;;10.63;;
58874;SDS011;44652;49.040;12.126;2023-04-06T18:45:54;11.85;;;9.60;;
58874;SDS011;44652;49.040;12.126;2023-04-06T18:48:20;13.82;;;9.10;;
58874;SDS011;44652;49.040;12.126;2023-04-06T18:50:53;11.98;;;8.77;;
58874;SDS011;44652;49.040;12.126;2023-04-06T18:53:22;12.05;;;8.57;;
58874;SDS011;44652;49.040;12.126;2023-04-06T18:55:49;10.68;;;7.85;;
58874;SDS011;44652;49.040;12.126;2023-04-06T18:58:16;12.50;;;8.05;;
58874;SDS011;44652;49.040;12.126;2023-04-06T19:00:43;16.10;;;11.30;;
58874;SDS011;44652;49.040;12.126;2023-04-06T19:03:10;22.83;;;17.75;;
58874;SDS011;44652;49.040;12.126;2023-04-06T19:05:39;25.63;;;19.60;;
58874;SDS011;44652;49.040;12.126;2023-04-06T19:08:09;22.48;;;17.75;;
58874;SDS011;44652;49.040;12.126;2023-04-06T19:10:35;21.60;;;16.02;;
58874;SDS011;44652;49.040;12.126;2023-04-06T19:13:03;19.38;;;15.20;;
58874;SDS011;44652;49.040;12.126;2023-04-06T19:15:30;20.48;;;14.35;;
58874;SDS011;44652;49.040;12.126;2023-04-06T19:17:57;22.58;;;15.07;;
58874;SDS011;44652;49.040;12.126;2023-04-06T19:20:24;31.30;;;24.17;;
58874;SDS011;44652;49.040;12.126;2023-04-06T19:22:51;30.15;;;22.98;;
58874;SDS011;44652;49.040;12.126;2023-04-06T19:25:17;27.10;;;21.33;;
58874;SDS011;44652;49.040;12.126;2023-04-06T19:27:44;22.30;;;16.13;;
58874;SDS011;44652;49.040;12.126;2023-04-06T19:30:11;21.55;;;15.25;;
58874;SDS011;44652;49.040;12.126;2023-04-06T19:32:38;18.50;;;12.50;;
58874;SDS011;44652;49.040;12.126;2023-04-06T19:35:07;14.98;;;11.07;;
58874;SDS011;44652;49.040;12.126;2023-04-06T19:37:34;16.17;;;10.90;;
58874;SDS011;44652;49.040;12.126;2023-04-06T19:40:04;15.82;;;10.20;;
58874;SDS011;44652;49.040;12.126;2023-04-06T19:42:36;14.30;;;10.20;;
58874;SDS011;44652;49.040;12.126;2023-04-06T19:45:04;19.73;;;9.27;;
58874;SDS011;44652;49.040;12.126;2023-04-06T19:47:31;14.80;;;9.23;;
58874;SDS011;44652;49.040;12.126;2023-04-06T19:49:58;16.13;;;9.60;;
58874;SDS011;44652;49.040;12.126;2023-04-06T19:52:25;15.45;;;9.32;;
58874;SDS011;44652;49.040;12.126;2023-04-06T19:54:51;14.30;;;9.20;;
58874;SDS011;44652;49.040;12.126;2023-04-06T19:57:18;15.32;;;8.63;;
58874;SDS011;44652;49.040;12.126;2023-04-06T19:59:45;13.52;;;8.35;;
58874;SDS011;44652;49.040;12.126;2023-04-06T20:02:11;13.38;;;9.07;;
58874;SDS011;44652;49.040;12.126;2023-04-06T20:04:38;14.63;;;8.88;;
58874;SDS011;44652;49.040;12.126;2023-04-06T20:07:05;13.82;;;8.15;;
58874;SDS011;44652;49.040;12.126;2023-04-06T20:09:32;13.77;;;8.77;;
58874;SDS011;44652;49.040;12.126;2023-04-06T20:11:59;13.00;;;8.25;;
58874;SDS011;44652;49.040;12.126;2023-04-06T20:14:26;12.30;;;7.85;;
58874;SDS011;44652;49.040;12.126;2023-04-06T20:16:53;12.93;;;7.35;;
58874;SDS011;44652;49.040;12.126;2023-04-06T20:19:20;15.00;;;10.07;;
58874;SDS011;44652;49.040;12.126;2023-04-06T20:21:47;14.50;;;8.98;;
58874;SDS011;44652;49.040;12.126;2023-04-06T20:24:14;11.18;;;7.70;;
58874;SDS011;44652;49.040;12.126;2023-04-06T20:26:40;14.70;;;9.02;;
58874;SDS011;44652;49.040;12.126;2023-04-06T20:29:07;12.38;;;8.85;;
58874;SDS011;44652;49.040;12.126;2023-04-06T20:31:34;13.95;;;9.40;;
58874;SDS011;44652;49.040;12.126;2023-04-06T20:34:01;13.43;;;10.50;;
58874;SDS011;44652;49.040;12.126;2023-04-06T20:36:29;16.17;;;10.25;;
58874;SDS011;44652;49.040;12.126;2023-04-06T20:38:57;20.58;;;10.00;;
58874;SDS011;44652;49.040;12.126;2023-04-06T20:41:24;17.67;;;9.63;;
58874;SDS011;44652;49.040;12.126;2023-04-06T20:43:51;15.55;;;9.82;;
58874;SDS011;44652;49.040;12.126;2023-04-06T20:46:18;15.60;;;9.73;;
58874;SDS011;44652;49.040;12.126;2023-04-06T20:48:45;18.75;;;10.35;;
58874;SDS011;44652;49.040;12.126;2023-04-06T20:51:18;17.95;;;8.65;;
58874;SDS011;44652;49.040;12.126;2023-04-06T20:53:48;14.15;;;8.40;;
58874;SDS011;44652;49.040;12.126;2023-04-06T20:56:14;13.43;;;8.45;;
58874;SDS011;44652;49.040;12.126;2023-04-06T20:58:41;13.75;;;9.07;;
58874;SDS011;44652;49.040;12.126;2023-04-06T21:01:11;13.43;;;8.18;;
58874;SDS011;44652;49.040;12.126;2023-04-06T21:03:42;22.65;;;11.63;;
58874;SDS011;44652;49.040;12.126;2023-04-06T21:06:10;24.38;;;12.18;;
58874;SDS011;44652;49.040;12.126;2023-04-06T21:08:37;20.77;;;10.10;;
58874;SDS011;44652;49.040;12.126;2023-04-06T21:11:04;17.25;;;9.30;;
58874;SDS011;44652;49.040;12.126;2023-04-06T21:13:32;14.00;;;8.48;;
58874;SDS011;44652;49.040;12.126;2023-04-06T21:15:59;15.80;;;8.40;;
58874;SDS011;44652;49.040;12.126;2023-04-06T21:18:28;12.33;;;7.50;;
58874;SDS011;44652;49.040;12.126;2023-04-06T21:20:56;13.88;;;8.45;;
58874;SDS011;44652;49.040;12.126;2023-04-06T21:23:23;13.75;;;8.82;;
58874;SDS011;44652;49.040;12.126;2023-04-06T21:25:50;15.40;;;10.15;;
58874;SDS011;44652;49.040;12.126;2023-04-06T21:28:17;18.25;;;11.05;;
58874;SDS011;44652;49.040;12.126;2023-04-06T21:30:44;18.25;;;10.00;;
58874;SDS011;44652;49.040;12.126;2023-04-06T21:33:12;16.30;;;9.73;;
58874;SDS011;44652;49.040;12.126;2023-04-06T21:35:39;16.13;;;9.30;;
58874;SDS011;44652;49.040;12.126;2023-04-06T21:38:06;17.58;;;9.35;;
58874;SDS011;44652;49.040;12.126;2023-04-06T21:40:34;12.60;;;8.83;;
58874;SDS011;44652;49.040;12.126;2023-04-06T21:43:01;13.82;;;9.35;;
58874;SDS011;44652;49.040;12.126;2023-04-06T21:45:28;15.50;;;10.35;;
58874;SDS011;44652;49.040;12.126;2023-04-06T21:47:55;16.00;;;9.10;;
58874;SDS011;44652;49.040;12.126;2023-04-06T21:50:22;14.13;;;9.15;;
58874;SDS011;44652;49.040;12.126;2023-04-06T21:52:49;15.35;;;9.88;;
58874;SDS011;44652;49.040;12.126;2023-04-06T21:55:16;15.23;;;9.77;;
58874;SDS011;44652;49.040;12.126;2023-04-06T21:57:43;15.43;;;10.35;;
58874;SDS011;44652;49.040;12.126;2023-04-06T22:00:10;13.93;;;9.63;;
